Wethersfield, Illinois
Current Conditions -  °F | °C
As of 9:15 AM on Monday 24 Nov 2014 (Local Time) from KCWI Reporting Station
Overcast Overcast  
Wind Chill: 17°   Ceiling: 800
Heat Index: 30°   Visibility: 1.2mi
Dew Point: 27°   Wind: 22mph
Humidity: 86%   Direction: 280°W
Pressure: 29.36"   Gusts: 26mph
Location:  41.5909°N, 89.9498°W
Report Text: KCWI 241515Z AUTO 28019G23KT 1 1/4SM OVC008 M01/M03 A2936 RMK AO1
Loading
Personal Weather Stations






























Interactive Weather Map New forecast layout! Learn more

10-Day Weather Forecast

Advertisements
Track Severe Weather on mobile